Time;durP1;ratioP1;P1;durP2;ratioP2;P2;SDS_P1;SDS_P2;PMS_P1;PMS_P2;Temp;Humidity;BMP_temperature;BMP_pressure;BME280_temperature;BME280_humidity;BME280_pressure;Samples;Min_cycle;Max_cycle;Signal;HPM_P1;HPM_P2
2021/12/27 00:00:43;;;;;;;18.98;12.25;;;;;;;;;;4955849;29;20193;-82
2021/12/27 00:03:11;;;;;;;19.92;13.85;;;;;;;;;;4955384;29;20219;-83
2021/12/27 00:05:40;;;;;;;17.98;14.25;;;;;;;;;;4955674;29;20185;-82
2021/12/27 00:08:08;;;;;;;16.15;11.38;;;;;;;;;;4956898;29;20185;-83
2021/12/27 00:10:36;;;;;;;18.30;13.45;;;;;;;;;;4956250;29;20216;-83
2021/12/27 00:13:04;;;;;;;19.92;14.70;;;;;;;;;;4956008;29;20227;-83
2021/12/27 00:15:31;;;;;;;22.08;14.48;;;;;;;;;;4956005;29;20296;-82
2021/12/27 00:17:59;;;;;;;15.95;11.75;;;;;;;;;;4956156;29;20203;-82
2021/12/27 00:20:28;;;;;;;18.15;14.55;;;;;;;;;;4955700;29;20193;-83
2021/12/27 00:22:56;;;;;;;15.88;12.27;;;;;;;;;;4955582;29;20581;-82
2021/12/27 00:25:26;;;;;;;18.48;13.43;;;;;;;;;;4955386;29;20652;-82
2021/12/27 00:27:54;;;;;;;15.25;12.15;;;;;;;;;;4955459;29;20216;-83
2021/12/27 00:30:22;;;;;;;16.20;11.55;;;;;;;;;;4955605;29;20188;-82
2021/12/27 00:32:50;;;;;;;16.35;11.77;;;;;;;;;;4955394;29;20221;-82
2021/12/27 00:35:19;;;;;;;14.45;12.10;;;;;;;;;;4955107;29;20198;-82
2021/12/27 00:37:47;;;;;;;16.33;12.55;;;;;;;;;;4955417;29;20216;-82
2021/12/27 00:40:16;;;;;;;16.83;12.40;;;;;;;;;;4955354;29;20292;-82
2021/12/27 00:42:44;;;;;;;16.48;12.32;;;;;;;;;;4955618;29;20260;-82
2021/12/27 00:45:13;;;;;;;14.23;11.55;;;;;;;;;;4955714;29;20211;-83
2021/12/27 00:47:41;;;;;;;13.95;11.43;;;;;;;;;;4942710;29;20261;-82
2021/12/27 00:50:09;;;;;;;21.27;13.27;;;;;;;;;;4936172;29;20187;-83
2021/12/27 00:52:37;;;;;;;14.73;11.85;;;;;;;;;;4937268;29;20209;-82
2021/12/27 00:55:06;;;;;;;14.45;11.25;;;;;;;;;;4940169;29;20194;-82
2021/12/27 00:57:35;;;;;;;17.42;12.48;;;;;;;;;;4939489;29;20190;-82
2021/12/27 01:00:05;;;;;;;13.13;11.35;;;;;;;;;;4939762;29;20228;-83
2021/12/27 01:02:32;;;;;;;11.90;9.35;;;;;;;;;;4939346;29;20649;-82
2021/12/27 01:05:00;;;;;;;14.77;11.10;;;;;;;;;;4945412;29;20193;-83
2021/12/27 01:07:27;;;;;;;19.08;12.32;;;;;;;;;;4958742;29;20216;-83
2021/12/27 01:10:06;;;;;;;18.45;13.73;;;;;;;;;;4958648;29;20194;-83
2021/12/27 01:12:47;;;;;;;14.55;11.80;;;;;;;;;;4958458;29;20221;-83
2021/12/27 01:15:34;;;;;;;16.83;11.55;;;;;;;;;;4958531;29;20193;-83
2021/12/27 01:18:02;;;;;;;20.60;13.23;;;;;;;;;;4958522;29;20280;-82
2021/12/27 01:20:30;;;;;;;15.85;12.20;;;;;;;;;;4958791;29;20201;-82
2021/12/27 01:22:58;;;;;;;16.52;12.50;;;;;;;;;;4958489;28;20615;-82
2021/12/27 01:25:26;;;;;;;20.95;14.60;;;;;;;;;;4958117;28;20587;-82
2021/12/27 01:27:54;;;;;;;18.58;13.85;;;;;;;;;;4958593;29;20201;-83
2021/12/27 01:30:23;;;;;;;14.88;10.55;;;;;;;;;;4957948;29;20205;-83
2021/12/27 01:32:56;;;;;;;15.30;11.80;;;;;;;;;;4957905;29;20696;-82
2021/12/27 01:35:25;;;;;;;16.85;12.68;;;;;;;;;;4956502;29;20205;-83
2021/12/27 01:37:54;;;;;;;15.77;11.32;;;;;;;;;;4958162;29;20205;-82
2021/12/27 01:40:26;;;;;;;13.35;11.30;;;;;;;;;;4957922;29;20177;-83
2021/12/27 01:43:09;;;;;;;17.83;12.20;;;;;;;;;;4958405;29;20240;-82
2021/12/27 01:45:39;;;;;;;15.32;12.07;;;;;;;;;;4958241;29;20235;-82
2021/12/27 01:48:08;;;;;;;18.50;14.15;;;;;;;;;;4957898;29;20177;-82
2021/12/27 01:50:38;;;;;;;15.48;12.38;;;;;;;;;;4957874;29;20288;-83
2021/12/27 01:53:06;;;;;;;14.60;11.07;;;;;;;;;;4958146;29;20233;-83
2021/12/27 01:55:35;;;;;;;14.80;11.13;;;;;;;;;;4957989;29;20186;-82
2021/12/27 01:58:05;;;;;;;16.58;12.60;;;;;;;;;;4956969;29;20200;-83
2021/12/27 02:00:34;;;;;;;15.40;11.43;;;;;;;;;;4958014;29;20641;-83
2021/12/27 02:03:03;;;;;;;11.73;9.25;;;;;;;;;;4957565;28;20232;-83
2021/12/27 02:05:31;;;;;;;13.43;9.68;;;;;;;;;;4957283;28;20205;-83
2021/12/27 02:07:58;;;;;;;16.83;11.38;;;;;;;;;;4947806;29;20649;-82
2021/12/27 02:10:26;;;;;;;14.40;10.25;;;;;;;;;;4938697;29;20183;-83
2021/12/27 02:12:53;;;;;;;13.57;9.73;;;;;;;;;;4938637;29;20601;-84
2021/12/27 02:15:22;;;;;;;15.23;10.65;;;;;;;;;;4949342;29;20193;-82
2021/12/27 02:17:50;;;;;;;14.52;11.65;;;;;;;;;;4955783;29;20201;-83
2021/12/27 02:20:21;;;;;;;11.60;9.32;;;;;;;;;;4950998;29;20197;-83
2021/12/27 02:22:51;;;;;;;13.98;10.27;;;;;;;;;;4938468;29;20305;-83
2021/12/27 02:25:18;;;;;;;9.57;8.55;;;;;;;;;;4938803;29;20182;-83
2021/12/27 02:27:47;;;;;;;12.93;10.15;;;;;;;;;;4944558;29;20663;-83
2021/12/27 02:30:18;;;;;;;12.05;9.10;;;;;;;;;;4957525;29;20196;-83
2021/12/27 02:32:48;;;;;;;10.35;9.07;;;;;;;;;;4957589;29;20695;-82
2021/12/27 02:35:20;;;;;;;10.25;7.88;;;;;;;;;;4957156;29;20644;-83
2021/12/27 02:37:48;;;;;;;11.10;8.95;;;;;;;;;;4957791;29;20181;-83
2021/12/27 02:40:16;;;;;;;11.60;8.85;;;;;;;;;;4956833;29;20202;-83
2021/12/27 02:42:59;;;;;;;9.40;7.57;;;;;;;;;;4989275;23;20967;-88
2021/12/27 02:45:30;;;;;;;10.27;8.63;;;;;;;;;;4954597;29;20571;-88
2021/12/27 02:47:58;;;;;;;11.35;9.00;;;;;;;;;;4953986;29;20220;-86
2021/12/27 02:50:27;;;;;;;10.07;7.57;;;;;;;;;;4954109;29;20190;-86
2021/12/27 02:52:55;;;;;;;8.32;6.95;;;;;;;;;;4946627;29;20236;-88
2021/12/27 02:55:24;;;;;;;8.25;6.95;;;;;;;;;;4924588;29;20203;-89
2021/12/27 02:57:52;;;;;;;9.00;7.65;;;;;;;;;;4916143;29;20286;-88
2021/12/27 03:00:23;;;;;;;10.63;8.20;;;;;;;;;;4915975;29;20198;-88
2021/12/27 03:02:52;;;;;;;9.52;8.02;;;;;;;;;;4915953;29;20701;-88
2021/12/27 03:05:22;;;;;;;10.40;8.73;;;;;;;;;;4916341;29;20551;-88
2021/12/27 03:07:52;;;;;;;11.70;7.95;;;;;;;;;;4916084;29;20195;-89
2021/12/27 03:10:23;;;;;;;9.20;7.05;;;;;;;;;;4916197;29;20191;-88
2021/12/27 03:12:52;;;;;;;12.52;8.90;;;;;;;;;;4916244;29;20236;-89
2021/12/27 03:15:22;;;;;;;10.20;8.05;;;;;;;;;;4916553;29;20199;-90
2021/12/27 03:17:51;;;;;;;9.10;8.18;;;;;;;;;;4917016;29;20198;-88
2021/12/27 03:20:21;;;;;;;10.75;8.77;;;;;;;;;;4916358;29;20202;-88
2021/12/27 03:22:50;;;;;;;8.15;6.65;;;;;;;;;;4927273;29;20229;-89
2021/12/27 03:25:21;;;;;;;9.13;8.15;;;;;;;;;;4935538;29;20412;-89
2021/12/27 03:27:49;;;;;;;12.02;9.98;;;;;;;;;;4934928;29;20306;-88
2021/12/27 03:30:20;;;;;;;12.35;9.65;;;;;;;;;;4934284;29;20218;-86
2021/12/27 03:32:47;;;;;;;10.93;9.82;;;;;;;;;;4933957;29;20256;-88
2021/12/27 03:35:24;;;;;;;10.77;8.10;;;;;;;;;;4934718;29;20198;-87
2021/12/27 03:37:56;;;;;;;9.57;7.85;;;;;;;;;;4934247;29;20198;-89
2021/12/27 03:40:25;;;;;;;9.90;7.70;;;;;;;;;;4934343;29;20189;-89
2021/12/27 03:42:53;;;;;;;10.02;8.65;;;;;;;;;;4916889;29;20253;-90
2021/12/27 03:45:22;;;;;;;10.68;8.55;;;;;;;;;;4915366;29;20202;-87
2021/12/27 03:47:51;;;;;;;10.95;9.23;;;;;;;;;;4916250;29;20190;-88
2021/12/27 03:50:19;;;;;;;9.55;8.43;;;;;;;;;;4916175;29;20195;-89
2021/12/27 03:52:47;;;;;;;14.40;10.13;;;;;;;;;;4929584;29;20225;-89
2021/12/27 03:55:16;;;;;;;11.07;8.38;;;;;;;;;;4933628;29;20209;-88
2021/12/27 03:57:52;;;;;;;8.55;7.40;;;;;;;;;;4934468;29;20190;-88
2021/12/27 04:00:32;;;;;;;10.45;8.10;;;;;;;;;;4934483;29;20232;-86
2021/12/27 04:03:02;;;;;;;10.57;7.50;;;;;;;;;;4918765;29;20269;-87
2021/12/27 04:05:30;;;;;;;8.77;7.55;;;;;;;;;;4916110;29;20589;-86
2021/12/27 04:08:09;;;;;;;6.93;5.82;;;;;;;;;;4914591;29;20210;-86
2021/12/27 04:10:39;;;;;;;10.20;8.48;;;;;;;;;;4915163;29;20645;-87
2021/12/27 04:13:09;;;;;;;6.68;6.07;;;;;;;;;;4914935;29;20238;-88
2021/12/27 04:15:36;;;;;;;9.32;7.68;;;;;;;;;;4915770;29;20193;-86
2021/12/27 04:18:11;;;;;;;8.98;7.15;;;;;;;;;;4916001;29;20187;-87
2021/12/27 04:20:38;;;;;;;9.90;7.82;;;;;;;;;;4915375;29;20202;-87
2021/12/27 04:23:06;;;;;;;8.65;7.03;;;;;;;;;;4916797;29;20614;-86
2021/12/27 04:25:34;;;;;;;9.40;7.32;;;;;;;;;;4916371;29;20209;-88
2021/12/27 04:28:03;;;;;;;9.60;8.02;;;;;;;;;;4915291;29;20194;-88
2021/12/27 04:30:30;;;;;;;8.52;6.82;;;;;;;;;;4916294;29;20592;-87
2021/12/27 04:32:58;;;;;;;6.93;6.22;;;;;;;;;;4915298;29;20234;-89
2021/12/27 04:35:25;;;;;;;7.90;6.72;;;;;;;;;;4914494;29;20207;-89
2021/12/27 04:37:53;;;;;;;11.32;8.60;;;;;;;;;;4914925;29;20204;-89
2021/12/27 04:40:23;;;;;;;10.15;8.35;;;;;;;;;;4927055;29;20197;-86
2021/12/27 04:42:54;;;;;;;9.38;8.23;;;;;;;;;;4917405;29;20234;-86
2021/12/27 04:45:23;;;;;;;10.85;8.73;;;;;;;;;;4915453;29;20206;-88
2021/12/27 04:47:50;;;;;;;10.30;7.43;;;;;;;;;;4915006;29;20193;-88
2021/12/27 04:50:18;;;;;;;9.55;7.30;;;;;;;;;;4914943;29;20193;-89
2021/12/27 04:52:47;;;;;;;8.60;6.22;;;;;;;;;;4914395;29;20222;-88
2021/12/27 04:55:14;;;;;;;9.38;7.57;;;;;;;;;;4916039;29;20254;-88
2021/12/27 04:57:42;;;;;;;10.05;8.45;;;;;;;;;;4915200;29;20293;-88
2021/12/27 05:00:11;;;;;;;9.55;7.32;;;;;;;;;;4915844;29;20206;-88
2021/12/27 05:02:40;;;;;;;9.68;8.43;;;;;;;;;;4933132;29;20222;-89
2021/12/27 05:05:08;;;;;;;11.45;8.73;;;;;;;;;;4933298;29;20237;-88
2021/12/27 05:07:35;;;;;;;11.52;8.20;;;;;;;;;;4933740;29;20190;-88
2021/12/27 05:10:03;;;;;;;9.27;8.00;;;;;;;;;;4933838;29;20698;-86
2021/12/27 05:12:31;;;;;;;11.23;9.32;;;;;;;;;;4933277;29;20233;-87
2021/12/27 05:14:58;;;;;;;10.77;8.02;;;;;;;;;;4933353;29;20220;-88
2021/12/27 05:17:26;;;;;;;11.95;9.73;;;;;;;;;;4935425;29;20187;-88
2021/12/27 05:19:55;;;;;;;11.30;9.63;;;;;;;;;;4934474;29;20210;-87
2021/12/27 05:22:24;;;;;;;10.63;7.82;;;;;;;;;;4932489;29;20233;-88
2021/12/27 05:24:51;;;;;;;11.30;8.70;;;;;;;;;;4933078;29;20232;-87
2021/12/27 05:27:19;;;;;;;10.23;7.90;;;;;;;;;;4934595;29;20646;-89
2021/12/27 05:29:46;;;;;;;11.15;8.95;;;;;;;;;;4935910;29;20641;-86
2021/12/27 05:32:14;;;;;;;13.02;9.25;;;;;;;;;;4925648;29;20214;-88
2021/12/27 05:34:41;;;;;;;10.77;9.32;;;;;;;;;;4916926;29;20203;-87
2021/12/27 05:37:10;;;;;;;10.27;8.15;;;;;;;;;;4920878;29;20190;-88
2021/12/27 05:39:39;;;;;;;10.93;8.02;;;;;;;;;;4937567;29;20212;-87
2021/12/27 05:42:08;;;;;;;11.15;8.18;;;;;;;;;;4937697;29;20565;-88
2021/12/27 05:44:36;;;;;;;9.30;8.35;;;;;;;;;;4927044;29;20295;-87
2021/12/27 05:47:04;;;;;;;10.73;8.52;;;;;;;;;;4918541;29;20290;-86
2021/12/27 05:49:31;;;;;;;10.68;8.25;;;;;;;;;;4918706;29;20183;-87
2021/12/27 05:51:59;;;;;;;9.88;8.60;;;;;;;;;;4919566;29;20725;-87
2021/12/27 05:54:28;;;;;;;9.75;7.85;;;;;;;;;;4919537;29;20191;-86
2021/12/27 05:56:55;;;;;;;9.15;7.07;;;;;;;;;;4919576;29;20206;-88
2021/12/27 05:59:23;;;;;;;8.90;7.63;;;;;;;;;;4919160;29;20650;-86
2021/12/27 06:01:53;;;;;;;12.27;9.27;;;;;;;;;;4929253;29;20212;-86
2021/12/27 06:04:21;;;;;;;10.02;7.45;;;;;;;;;;4938436;29;20608;-86
2021/12/27 06:06:48;;;;;;;8.77;7.53;;;;;;;;;;4936497;29;20213;-86
2021/12/27 06:09:16;;;;;;;10.23;8.27;;;;;;;;;;4937930;29;20193;-88
2021/12/27 06:11:44;;;;;;;9.23;6.85;;;;;;;;;;4937598;29;20190;-86
2021/12/27 06:14:12;;;;;;;7.90;7.13;;;;;;;;;;4937194;29;20228;-88
2021/12/27 06:16:40;;;;;;;8.20;7.07;;;;;;;;;;4926482;29;20209;-89
2021/12/27 06:19:07;;;;;;;9.10;7.05;;;;;;;;;;4918415;29;20210;-86
2021/12/27 06:21:36;;;;;;;7.57;6.50;;;;;;;;;;4924782;29;20190;-85
2021/12/27 06:24:05;;;;;;;10.90;7.63;;;;;;;;;;4931306;29;20697;-87
2021/12/27 06:26:32;;;;;;;8.98;6.75;;;;;;;;;;4918957;29;20190;-86
2021/12/27 06:29:01;;;;;;;8.02;7.07;;;;;;;;;;4918499;29;20202;-87
2021/12/27 06:31:31;;;;;;;8.73;6.78;;;;;;;;;;4934189;29;20208;-89
2021/12/27 06:33:58;;;;;;;9.57;7.72;;;;;;;;;;4937114;29;20225;-87
2021/12/27 06:36:26;;;;;;;8.05;6.72;;;;;;;;;;4928452;29;20194;-88
2021/12/27 06:38:53;;;;;;;8.93;6.65;;;;;;;;;;4917889;29;20273;-85
2021/12/27 06:41:24;;;;;;;9.23;7.55;;;;;;;;;;4931836;29;20206;-86
2021/12/27 06:43:53;;;;;;;8.32;7.22;;;;;;;;;;4936948;29;20238;-86
2021/12/27 06:46:23;;;;;;;9.07;7.35;;;;;;;;;;4919262;29;20603;-87
2021/12/27 06:48:51;;;;;;;8.75;6.43;;;;;;;;;;4914022;29;20202;-87
2021/12/27 06:51:19;;;;;;;7.18;6.07;;;;;;;;;;4917407;29;20206;-86
2021/12/27 06:53:46;;;;;;;7.45;6.53;;;;;;;;;;4918261;29;20222;-88
2021/12/27 06:56:14;;;;;;;9.13;7.15;;;;;;;;;;4918117;29;20199;-87
2021/12/27 06:58:42;;;;;;;7.47;6.32;;;;;;;;;;4918312;29;20195;-85
2021/12/27 07:01:10;;;;;;;7.50;6.30;;;;;;;;;;4923499;29;20194;-86
2021/12/27 07:03:44;;;;;;;9.40;7.35;;;;;;;;;;4936468;29;20218;-87
2021/12/27 07:06:12;;;;;;;6.57;5.75;;;;;;;;;;4936711;29;20233;-87
2021/12/27 07:08:40;;;;;;;7.90;6.93;;;;;;;;;;4936986;29;20202;-87
2021/12/27 07:11:07;;;;;;;11.07;7.40;;;;;;;;;;4924532;29;20186;-87
2021/12/27 07:13:35;;;;;;;7.30;6.45;;;;;;;;;;4917135;29;20237;-88
2021/12/27 07:16:02;;;;;;;6.97;6.20;;;;;;;;;;4917158;29;20216;-90
2021/12/27 07:18:30;;;;;;;7.30;6.60;;;;;;;;;;4916257;29;20186;-88
2021/12/27 07:20:59;;;;;;;8.50;6.95;;;;;;;;;;4916908;29;20558;-88
2021/12/27 07:23:26;;;;;;;6.38;5.65;;;;;;;;;;4917622;29;20233;-85
2021/12/27 07:25:54;;;;;;;7.63;6.88;;;;;;;;;;4917082;29;20230;-89
2021/12/27 07:28:22;;;;;;;12.48;6.85;;;;;;;;;;4917127;29;20198;-87
2021/12/27 07:30:49;;;;;;;6.57;5.93;;;;;;;;;;4917456;29;20646;-87
2021/12/27 07:33:17;;;;;;;9.35;6.13;;;;;;;;;;4911554;29;20727;-88
2021/12/27 07:35:47;;;;;;;8.65;6.55;;;;;;;;;;4906064;29;20732;-84
2021/12/27 07:38:16;;;;;;;7.20;6.05;;;;;;;;;;4917640;29;20273;-86
2021/12/27 07:40:44;;;;;;;7.03;5.88;;;;;;;;;;4917344;29;20198;-87
2021/12/27 07:43:11;;;;;;;7.10;5.45;;;;;;;;;;4917021;29;20694;-88
2021/12/27 07:45:39;;;;;;;6.45;5.53;;;;;;;;;;4917117;29;20339;-85
2021/12/27 07:48:07;;;;;;;7.38;6.07;;;;;;;;;;4917166;29;20190;-89
2021/12/27 07:50:35;;;;;;;9.18;6.35;;;;;;;;;;4916847;29;20293;-88
2021/12/27 07:53:03;;;;;;;6.75;6.05;;;;;;;;;;4916969;29;20752;-88
2021/12/27 07:55:32;;;;;;;8.00;6.45;;;;;;;;;;4917026;29;20642;-88
2021/12/27 07:58:01;;;;;;;7.53;5.40;;;;;;;;;;4917249;29;20187;-87
2021/12/27 08:00:31;;;;;;;7.13;6.10;;;;;;;;;;4916448;29;20634;-89
2021/12/27 08:02:59;;;;;;;8.55;6.65;;;;;;;;;;4915097;29;20603;-89
2021/12/27 08:05:28;;;;;;;9.23;6.50;;;;;;;;;;4916320;29;20648;-88
2021/12/27 08:07:59;;;;;;;8.20;5.65;;;;;;;;;;4916495;29;20198;-89
2021/12/27 08:10:28;;;;;;;8.05;7.15;;;;;;;;;;4915401;29;20664;-88
2021/12/27 08:12:57;;;;;;;8.43;7.00;;;;;;;;;;4915528;29;20230;-86
2021/12/27 08:15:25;;;;;;;7.30;6.60;;;;;;;;;;4916759;29;20191;-86
2021/12/27 08:17:52;;;;;;;9.68;8.07;;;;;;;;;;4916414;29;20217;-85
2021/12/27 08:20:20;;;;;;;10.43;7.28;;;;;;;;;;4916549;29;20201;-85
2021/12/27 08:22:48;;;;;;;8.23;7.03;;;;;;;;;;4917389;29;20591;-87
2021/12/27 08:25:16;;;;;;;7.15;6.20;;;;;;;;;;4918339;29;20234;-86
2021/12/27 08:27:46;;;;;;;7.55;6.40;;;;;;;;;;4918080;29;20205;-86
2021/12/27 08:30:15;;;;;;;9.30;7.15;;;;;;;;;;4917475;29;20592;-87
2021/12/27 08:32:46;;;;;;;8.55;7.75;;;;;;;;;;4928055;29;20228;-85
2021/12/27 08:35:16;;;;;;;8.70;7.25;;;;;;;;;;4927674;29;20234;-87
2021/12/27 08:37:44;;;;;;;10.25;7.10;;;;;;;;;;4917426;29;20567;-87
2021/12/27 08:40:13;;;;;;;9.43;7.68;;;;;;;;;;4916931;29;20202;-85
2021/12/27 08:42:41;;;;;;;7.97;6.30;;;;;;;;;;4916799;29;20238;-86
2021/12/27 08:45:10;;;;;;;7.53;5.55;;;;;;;;;;4917614;29;20239;-86
2021/12/27 08:47:40;;;;;;;6.65;5.95;;;;;;;;;;4918111;29;20238;-87
2021/12/27 08:50:12;;;;;;;8.75;6.68;;;;;;;;;;4918684;29;20229;-86
2021/12/27 08:52:41;;;;;;;8.07;6.60;;;;;;;;;;4918631;29;20230;-88
2021/12/27 08:55:09;;;;;;;9.32;6.43;;;;;;;;;;4918216;29;20577;-87
2021/12/27 08:57:37;;;;;;;8.90;6.28;;;;;;;;;;4917972;29;20677;-86
2021/12/27 09:00:09;;;;;;;8.43;6.43;;;;;;;;;;4918307;29;20567;-87
2021/12/27 09:02:39;;;;;;;7.68;5.72;;;;;;;;;;4905690;29;20232;-86
2021/12/27 09:05:07;;;;;;;9.23;6.22;;;;;;;;;;4918434;29;20187;-86
2021/12/27 09:07:35;;;;;;;5.75;5.15;;;;;;;;;;4925868;29;20216;-86
2021/12/27 09:10:05;;;;;;;6.47;4.97;;;;;;;;;;4937271;29;20190;-86
2021/12/27 09:12:33;;;;;;;6.38;5.10;;;;;;;;;;4937531;29;20284;-87
2021/12/27 11:38:48;;;;;;;4.40;4.00;;;;;;;;;;5088575;23;20237;-86
2021/12/27 11:41:34;;;;;;;5.25;4.32;;;;;;;;;;4938209;29;20720;-86
2021/12/27 11:44:04;;;;;;;4.72;4.00;;;;;;;;;;4938547;29;20236;-86
2021/12/27 11:46:54;;;;;;;3.17;2.88;;;;;;;;;;4938729;29;20209;-87
2021/12/27 11:49:37;;;;;;;3.70;3.40;;;;;;;;;;4939295;29;20209;-86
2021/12/27 11:52:21;;;;;;;3.95;3.55;;;;;;;;;;4939625;29;20217;-88
2021/12/27 11:54:56;;;;;;;3.13;2.88;;;;;;;;;;4939089;29;20284;-87
2021/12/27 11:57:56;;;;;;;3.42;3.15;;;;;;;;;;4938786;29;20206;-87
2021/12/27 12:00:35;;;;;;;3.78;3.38;;;;;;;;;;4929154;29;20240;-86
2021/12/27 12:03:19;;;;;;;3.97;3.58;;;;;;;;;;4940574;29;20245;-88
2021/12/27 12:05:50;;;;;;;4.05;3.65;;;;;;;;;;4937523;29;20205;-85
2021/12/27 12:08:19;;;;;;;4.40;4.00;;;;;;;;;;4936398;29;20699;-86
2021/12/27 12:11:00;;;;;;;4.65;3.78;;;;;;;;;;4936671;29;20201;-87
2021/12/27 12:13:33;;;;;;;3.83;3.53;;;;;;;;;;4937505;29;20225;-85
2021/12/27 12:16:09;;;;;;;4.05;3.75;;;;;;;;;;4936278;29;20305;-87
2021/12/27 12:18:41;;;;;;;3.97;3.38;;;;;;;;;;4935816;29;20213;-88
2021/12/27 12:21:39;;;;;;;4.63;4.22;;;;;;;;;;4935818;29;20212;-88
2021/12/27 12:24:10;;;;;;;4.90;3.80;;;;;;;;;;4935274;29;20221;-86
2021/12/27 12:26:56;;;;;;;5.30;4.80;;;;;;;;;;4934750;29;20488;-87
2021/12/27 12:29:25;;;;;;;5.50;4.65;;;;;;;;;;4935458;29;20209;-87
2021/12/27 12:31:57;;;;;;;4.47;4.07;;;;;;;;;;4938234;29;20205;-87
2021/12/27 12:34:25;;;;;;;5.38;4.28;;;;;;;;;;4936993;29;20214;-86
2021/12/27 12:36:56;;;;;;;5.07;4.57;;;;;;;;;;4936559;29;20206;-85
2021/12/27 12:39:26;;;;;;;4.78;3.90;;;;;;;;;;4936433;29;20205;-86
2021/12/27 12:42:08;;;;;;;4.43;4.03;;;;;;;;;;4937171;29;20205;-86
2021/12/27 12:44:45;;;;;;;4.13;3.72;;;;;;;;;;4937176;29;20205;-87
2021/12/27 12:47:12;;;;;;;3.42;3.22;;;;;;;;;;4936639;29;20252;-87
2021/12/27 12:49:40;;;;;;;4.78;4.38;;;;;;;;;;4940591;29;20208;-87
2021/12/27 12:52:09;;;;;;;3.47;3.17;;;;;;;;;;4940745;29;20690;-87
2021/12/27 12:54:40;;;;;;;3.90;3.40;;;;;;;;;;4940406;29;20214;-86
2021/12/27 12:57:10;;;;;;;3.97;3.55;;;;;;;;;;4940572;29;20216;-87
2021/12/27 12:59:41;;;;;;;4.75;4.35;;;;;;;;;;4940279;29;20205;-88
2021/12/27 13:02:13;;;;;;;4.28;3.88;;;;;;;;;;4940170;29;20205;-85
2021/12/27 13:04:48;;;;;;;3.97;3.45;;;;;;;;;;4940798;29;20214;-87
2021/12/27 13:07:32;;;;;;;3.05;2.85;;;;;;;;;;4940401;29;20209;-86
2021/12/27 13:10:00;;;;;;;3.35;3.10;;;;;;;;;;4939574;29;20206;-86
2021/12/27 13:12:30;;;;;;;3.80;3.50;;;;;;;;;;4940325;29;20229;-87
2021/12/27 13:15:00;;;;;;;4.35;3.95;;;;;;;;;;4939713;29;20205;-86
2021/12/27 13:17:29;;;;;;;3.78;3.47;;;;;;;;;;4939435;29;20680;-86
2021/12/27 13:20:12;;;;;;;3.60;3.13;;;;;;;;;;4940380;29;20216;-88
2021/12/27 13:22:48;;;;;;;2.85;2.65;;;;;;;;;;4941532;29;20232;-85
2021/12/27 13:25:30;;;;;;;3.22;2.92;;;;;;;;;;4942585;29;20182;-86
2021/12/27 13:28:14;;;;;;;3.55;3.25;;;;;;;;;;4942099;29;20226;-86
2021/12/27 13:31:01;;;;;;;4.10;3.72;;;;;;;;;;4942399;29;20214;-86
2021/12/27 13:33:33;;;;;;;3.75;2.83;;;;;;;;;;4941594;29;20218;-86
2021/12/27 13:36:02;;;;;;;3.15;2.95;;;;;;;;;;4942702;29;20198;-87
2021/12/27 13:38:33;;;;;;;3.42;3.13;;;;;;;;;;4942951;29;20233;-86
2021/12/27 13:41:04;;;;;;;4.55;3.40;;;;;;;;;;4943489;29;20288;-86
2021/12/27 13:43:33;;;;;;;3.92;3.53;;;;;;;;;;4944949;29;20296;-86
2021/12/27 13:46:11;;;;;;;4.20;3.75;;;;;;;;;;4943478;29;20240;-87
2021/12/27 13:48:41;;;;;;;4.10;3.30;;;;;;;;;;4943774;29;20229;-86
2021/12/27 13:51:09;;;;;;;3.65;3.35;;;;;;;;;;4943550;29;20201;-87
2021/12/27 13:53:38;;;;;;;3.63;3.20;;;;;;;;;;4943846;29;20221;-87
2021/12/27 13:56:11;;;;;;;3.33;3.03;;;;;;;;;;4944218;29;20198;-86
2021/12/27 13:58:42;;;;;;;5.60;3.92;;;;;;;;;;4943875;29;20208;-86
2021/12/27 14:01:16;;;;;;;6.85;4.57;;;;;;;;;;4943540;29;20205;-87
2021/12/27 14:03:46;;;;;;;4.55;4.00;;;;;;;;;;4943219;29;20227;-86
2021/12/27 14:06:14;;;;;;;5.25;4.63;;;;;;;;;;4943046;29;20202;-87
2021/12/27 14:08:56;;;;;;;5.50;4.75;;;;;;;;;;4942814;29;20241;-86
2021/12/27 14:11:24;;;;;;;4.97;4.53;;;;;;;;;;4943882;29;20212;-86
2021/12/27 14:14:01;;;;;;;4.63;3.45;;;;;;;;;;4942448;29;20229;-87
2021/12/27 14:16:35;;;;;;;4.38;3.97;;;;;;;;;;4942782;29;20201;-86
2021/12/27 14:19:11;;;;;;;4.85;4.10;;;;;;;;;;4943203;29;20205;-87
2021/12/27 14:22:09;;;;;;;3.72;3.42;;;;;;;;;;4943450;29;20241;-87
2021/12/27 14:24:54;;;;;;;4.72;4.32;;;;;;;;;;4930845;29;20248;-87
2021/12/27 14:27:27;;;;;;;5.03;3.88;;;;;;;;;;4941859;29;20214;-86
2021/12/27 14:30:19;;;;;;;4.57;4.15;;;;;;;;;;4942615;29;20253;-86
2021/12/27 14:33:03;;;;;;;5.47;4.97;;;;;;;;;;4942587;29;20217;-87
2021/12/27 14:35:33;;;;;;;16.90;15.32;;;;;;;;;;4942264;29;20205;-86
2021/12/27 14:38:02;;;;;;;9.95;9.07;;;;;;;;;;4942197;29;20232;-87
2021/12/27 14:40:34;;;;;;;7.43;6.78;;;;;;;;;;4942563;29;20224;-86
2021/12/27 14:43:01;;;;;;;8.60;7.57;;;;;;;;;;4941752;29;20779;-87
2021/12/27 14:45:30;;;;;;;10.18;9.18;;;;;;;;;;4942790;29;20206;-87
2021/12/27 14:48:00;;;;;;;8.80;7.97;;;;;;;;;;4942002;29;20669;-87
2021/12/27 14:50:29;;;;;;;10.13;9.23;;;;;;;;;;4941489;29;20233;-87
2021/12/27 14:52:57;;;;;;;6.63;6.03;;;;;;;;;;4942472;29;20230;-86
2021/12/27 14:55:25;;;;;;;7.72;6.82;;;;;;;;;;4942321;29;20198;-87
2021/12/27 14:57:54;;;;;;;7.95;7.13;;;;;;;;;;4941892;29;20213;-87
2021/12/27 15:00:25;;;;;;;8.05;7.07;;;;;;;;;;4941314;29;20206;-87
2021/12/27 15:02:53;;;;;;;6.45;5.85;;;;;;;;;;4941140;29;20654;-87
2021/12/27 15:05:21;;;;;;;6.95;6.28;;;;;;;;;;4941289;29;20204;-87
2021/12/27 15:07:48;;;;;;;6.75;6.13;;;;;;;;;;4941069;29;20205;-87
2021/12/27 15:10:16;;;;;;;5.97;5.38;;;;;;;;;;4940982;29;20236;-87
2021/12/27 15:12:44;;;;;;;6.03;4.53;;;;;;;;;;4940552;29;20222;-87
2021/12/27 16:24:01;;;;;;;5.72;5.22;;;;;;;;;;5813663;23;20274;-83
2021/12/27 16:26:29;;;;;;;6.18;5.50;;;;;;;;;;4952445;28;20255;-84
2021/12/27 16:28:57;;;;;;;6.55;5.55;;;;;;;;;;4953246;28;20201;-83
2021/12/27 16:31:24;;;;;;;6.80;6.00;;;;;;;;;;4952534;29;20177;-83
2021/12/27 16:33:51;;;;;;;6.68;6.00;;;;;;;;;;4952815;28;20723;-83
2021/12/27 16:36:19;;;;;;;5.45;4.95;;;;;;;;;;4952683;29;20213;-83
2021/12/27 16:38:46;;;;;;;5.78;5.28;;;;;;;;;;4953952;29;20204;-84
2021/12/27 16:41:15;;;;;;;6.28;5.68;;;;;;;;;;4953551;28;20209;-84
2021/12/27 16:43:42;;;;;;;5.35;4.85;;;;;;;;;;4954248;28;20205;-83
2021/12/27 16:46:10;;;;;;;5.28;4.80;;;;;;;;;;4954035;28;20679;-83
2021/12/27 16:48:37;;;;;;;5.57;5.07;;;;;;;;;;4953770;28;20575;-83
2021/12/27 16:51:07;;;;;;;4.68;4.28;;;;;;;;;;4953957;29;20225;-84
2021/12/27 16:53:34;;;;;;;4.65;4.22;;;;;;;;;;4955118;28;20300;-84
2021/12/27 16:56:02;;;;;;;3.63;3.13;;;;;;;;;;4954997;28;20300;-83
2021/12/27 16:58:31;;;;;;;3.58;3.25;;;;;;;;;;4954436;29;20686;-84
2021/12/27 17:00:58;;;;;;;4.80;4.40;;;;;;;;;;4954201;28;20204;-84
2021/12/27 17:03:26;;;;;;;5.55;4.22;;;;;;;;;;4953998;28;20205;-84
2021/12/27 17:05:53;;;;;;;5.00;4.50;;;;;;;;;;4954005;28;20233;-84
2021/12/27 17:08:23;;;;;;;5.25;4.75;;;;;;;;;;4954124;28;20213;-83
2021/12/27 17:10:50;;;;;;;5.45;4.95;;;;;;;;;;4954483;29;20240;-84
2021/12/27 17:13:18;;;;;;;5.18;4.53;;;;;;;;;;4954012;29;20709;-83
2021/12/27 17:15:51;;;;;;;7.03;5.22;;;;;;;;;;4954072;28;20221;-83
2021/12/27 17:18:19;;;;;;;4.95;4.40;;;;;;;;;;4953439;29;20205;-83
2021/12/27 17:20:47;;;;;;;6.07;5.15;;;;;;;;;;4954110;28;20216;-82
2021/12/27 17:23:15;;;;;;;5.72;5.22;;;;;;;;;;4953830;28;20205;-83
2021/12/27 17:25:43;;;;;;;4.45;4.05;;;;;;;;;;4953562;29;20315;-82
2021/12/27 17:28:13;;;;;;;5.50;5.00;;;;;;;;;;4954188;29;20205;-83
2021/12/27 17:30:43;;;;;;;5.78;5.20;;;;;;;;;;4954196;29;20641;-83
2021/12/27 17:33:11;;;;;;;6.45;5.50;;;;;;;;;;4953862;29;20709;-82
2021/12/27 17:35:40;;;;;;;4.95;4.55;;;;;;;;;;4957131;28;20235;-83
2021/12/27 17:38:07;;;;;;;5.07;4.53;;;;;;;;;;4957193;29;20200;-83
2021/12/27 17:40:35;;;;;;;5.85;5.35;;;;;;;;;;4957439;28;20205;-82
2021/12/27 17:43:03;;;;;;;6.07;5.22;;;;;;;;;;4956876;29;20238;-84
2021/12/27 17:45:31;;;;;;;6.75;6.05;;;;;;;;;;4956813;29;20228;-82
2021/12/27 17:47:58;;;;;;;5.55;4.97;;;;;;;;;;4956777;28;20211;-83
2021/12/27 17:50:30;;;;;;;5.78;5.28;;;;;;;;;;4956837;29;20235;-84
2021/12/27 17:52:59;;;;;;;6.03;5.43;;;;;;;;;;4956489;28;20213;-83
2021/12/27 17:55:26;;;;;;;5.43;4.93;;;;;;;;;;4956793;28;20229;-83
2021/12/27 17:57:55;;;;;;;5.80;5.20;;;;;;;;;;4956558;29;20221;-81
2021/12/27 18:00:23;;;;;;;4.93;4.38;;;;;;;;;;4955925;28;20209;-82
2021/12/27 18:02:52;;;;;;;4.88;4.45;;;;;;;;;;4955644;29;20205;-82
2021/12/27 18:05:19;;;;;;;6.35;5.57;;;;;;;;;;4956464;28;20228;-83
2021/12/27 18:07:48;;;;;;;5.55;5.05;;;;;;;;;;4955977;28;20216;-83
2021/12/27 18:10:18;;;;;;;4.90;4.50;;;;;;;;;;4956552;29;20232;-83
2021/12/27 18:12:46;;;;;;;5.82;5.22;;;;;;;;;;4956092;29;20201;-83
2021/12/27 18:15:15;;;;;;;5.00;4.35;;;;;;;;;;4956795;29;20599;-81
2021/12/27 18:17:43;;;;;;;4.40;4.03;;;;;;;;;;4955927;29;20185;-81
2021/12/27 18:20:15;;;;;;;5.53;5.03;;;;;;;;;;4956856;29;20189;-82
2021/12/27 18:22:44;;;;;;;4.38;3.97;;;;;;;;;;4955767;29;20205;-82
2021/12/27 18:25:14;;;;;;;6.45;5.50;;;;;;;;;;4955360;29;20245;-82